KPTS

Atkinson Municipal Airport

Pittsburg, Kansas, USA
METAR KPTS 230955Z AUTO 00000KT 10SM CLR 08/08 A3023 RMK AO2 T00770078
Observed Flight Rules
Oct-23 @ 09:55 UTC (12 minutes ago) Visual Flight Rules
Visibility Clouds
10 miles
  • Clear skies
Temperatures Readings
Current 8°C / 46°F
Dewpoint 8°C / 46°F
Humidity 100%
Altimeter 30.23" Hg
Pressure 1024 hPa
Elevation 290
METAR KPTS 230955Z AUTO 00000KT 10SM CLR 08/08 A3023 RMK AO2 T00770078
Observed Flight Rules
Oct-23 @ 09:55 UTC
(12 minutes ago)
VFR
Clouds
  • Clear skies
Temperature Dewpoint
8°C / 46°F 8°C / 46°F
Humidity Altimeter Pressure
100% 30.23" Hg 1024 hPa